createdAt,value
2019-01-23T00:01:54.743Z,81.93
2019-01-23T00:04:24.506Z,80.27
2019-01-23T00:06:54.266Z,78.80
2019-01-23T00:09:23.971Z,80.37
2019-01-23T00:11:53.663Z,80.00
2019-01-23T00:14:23.358Z,78.80
2019-01-23T00:16:53.118Z,78.87
2019-01-23T00:19:22.820Z,80.33
2019-01-23T00:21:52.497Z,79.13
2019-01-23T00:24:22.198Z,80.93
2019-01-23T00:26:52.033Z,82.13
2019-01-23T00:29:21.741Z,80.90
2019-01-23T00:31:51.418Z,78.73
2019-01-23T00:34:21.187Z,79.13
2019-01-23T00:36:50.886Z,77.20
2019-01-23T00:39:21.542Z,81.60
2019-01-23T00:41:51.303Z,81.00
2019-01-23T00:44:20.990Z,81.97
2019-01-23T00:46:50.838Z,82.10
2019-01-23T00:49:20.543Z,83.53
2019-01-23T00:51:50.226Z,80.97
2019-01-23T00:54:20.355Z,82.57
2019-01-23T00:56:50.043Z,79.63
2019-01-23T00:59:19.754Z,79.53
2019-01-23T01:01:49.515Z,78.90
2019-01-23T01:04:19.287Z,79.80
2019-01-23T01:06:49.090Z,77.70
2019-01-23T01:09:18.938Z,82.20
2019-01-23T01:11:48.662Z,79.60
2019-01-23T01:14:18.439Z,83.53
2019-01-23T01:16:48.126Z,77.93
2019-01-23T01:19:17.888Z,81.63
2019-01-23T01:21:47.582Z,79.33
2019-01-23T01:24:17.343Z,80.10
2019-01-23T01:26:47.047Z,76.90
2019-01-23T01:29:16.731Z,76.87
2019-01-23T01:31:46.432Z,79.03
2019-01-23T01:34:16.139Z,78.90
2019-01-23T01:36:45.914Z,79.20
2019-01-23T01:39:15.595Z,79.20
2019-01-23T01:41:45.287Z,78.13
2019-01-23T01:44:14.966Z,82.43
2019-01-23T01:46:44.667Z,81.27
2019-01-23T01:49:14.355Z,79.10
2019-01-23T01:51:44.126Z,77.73
2019-01-23T01:54:13.826Z,79.97
2019-01-23T01:56:43.529Z,79.50
2019-01-23T01:59:13.212Z,79.10
2019-01-23T02:01:43.031Z,80.70
2019-01-23T02:04:12.711Z,78.33
2019-01-23T02:06:42.509Z,79.57
2019-01-23T02:09:12.274Z,79.30
2019-01-23T02:11:41.975Z,78.47
2019-01-23T02:14:11.740Z,78.20
2019-01-23T02:16:41.434Z,78.53
2019-01-23T02:19:11.190Z,77.30
2019-01-23T02:21:40.942Z,79.30
2019-01-23T02:24:10.679Z,80.90
2019-01-23T02:26:40.386Z,79.43
2019-01-23T02:29:10.074Z,80.27
2019-01-23T02:31:39.841Z,81.37
2019-01-23T02:34:09.534Z,78.53
2019-01-23T02:36:39.296Z,80.83
2019-01-23T02:39:09.134Z,79.70
2019-01-23T02:41:38.859Z,81.40
2019-01-23T02:44:08.692Z,78.73
2019-01-23T02:46:38.396Z,78.83
2019-01-23T02:49:08.072Z,79.90
2019-01-23T02:51:37.915Z,78.17
2019-01-23T02:54:07.596Z,80.40
2019-01-23T02:56:37.664Z,80.87
2019-01-23T02:59:07.498Z,82.07
2019-01-23T03:01:37.279Z,80.17
2019-01-23T03:04:07.111Z,79.07
2019-01-23T03:06:36.865Z,82.03
2019-01-23T03:09:08.052Z,78.80
2019-01-23T03:11:37.886Z,77.60
2019-01-23T03:14:07.748Z,80.23
2019-01-23T03:16:37.432Z,80.67
2019-01-23T03:19:09.491Z,79.37
2019-01-23T03:21:39.179Z,78.80
2019-01-23T03:24:10.013Z,83.77
2019-01-23T03:26:39.813Z,79.53
2019-01-23T03:29:09.506Z,79.77
2019-01-23T03:31:39.273Z,77.20
2019-01-23T03:34:08.955Z,80.90
2019-01-23T03:36:38.759Z,78.77
2019-01-23T03:39:09.458Z,78.57
2019-01-23T03:41:39.159Z,81.23
2019-01-23T03:44:08.845Z,77.57
2019-01-23T03:46:38.623Z,79.57
2019-01-23T03:49:08.312Z,81.47
2019-01-23T03:51:38.028Z,79.87
2019-01-23T03:54:07.722Z,80.43
2019-01-23T03:56:37.414Z,78.97
2019-01-23T03:59:07.126Z,80.17
2019-01-23T04:01:37.371Z,78.93
2019-01-23T04:04:07.227Z,79.57
2019-01-23T04:06:36.912Z,77.63
2019-01-23T04:09:08.388Z,79.90
2019-01-23T04:11:38.085Z,79.73
2019-01-23T04:14:07.762Z,78.03
2019-01-23T04:16:37.530Z,78.93
2019-01-23T04:19:07.297Z,80.63
2019-01-23T04:21:37.058Z,78.00
2019-01-23T04:24:06.823Z,78.50
2019-01-23T04:26:36.510Z,80.50
2019-01-23T04:29:06.283Z,78.73
2019-01-23T04:31:35.990Z,80.47
2019-01-23T04:34:05.688Z,78.63
2019-01-23T04:36:35.459Z,83.17
2019-01-23T04:39:07.969Z,77.60
2019-01-23T04:41:37.745Z,81.93
2019-01-23T04:44:07.758Z,77.57
2019-01-23T04:46:37.477Z,79.30
2019-01-23T04:49:07.259Z,77.87
2019-01-23T04:51:44.273Z,80.57
2019-01-23T04:54:16.174Z,78.80
2019-01-23T04:56:46.832Z,78.53
2019-01-23T04:59:16.560Z,80.13
2019-01-23T05:01:46.311Z,79.57
2019-01-23T05:04:16.164Z,80.23
2019-01-23T05:06:45.851Z,77.50
2019-01-23T05:09:15.563Z,78.33
2019-01-23T05:11:45.328Z,80.80
2019-01-23T05:14:15.042Z,80.23
2019-01-23T05:16:44.741Z,78.57
2019-01-23T05:19:14.509Z,78.20
2019-01-23T05:21:44.278Z,78.23
2019-01-23T05:24:13.986Z,80.27
2019-01-23T05:26:43.691Z,78.57
2019-01-23T05:29:13.409Z,78.07
2019-01-23T05:31:43.114Z,76.50
2019-01-23T05:34:12.887Z,79.93
2019-01-23T05:36:42.592Z,79.13
2019-01-23T05:39:12.274Z,77.10
2019-01-23T05:41:41.967Z,81.23
2019-01-23T05:44:11.748Z,78.43
2019-01-23T05:46:41.438Z,77.17
2019-01-23T05:49:11.122Z,79.43
2019-01-23T05:51:40.826Z,79.33
2019-01-23T05:54:10.513Z,77.47
2019-01-23T05:56:40.225Z,77.83
2019-01-23T05:59:09.919Z,79.03
2019-01-23T06:01:39.620Z,81.17
2019-01-23T06:04:09.442Z,83.07
2019-01-23T06:06:39.213Z,82.97
2019-01-23T06:09:09.592Z,84.20
2019-01-23T06:11:39.364Z,84.03
2019-01-23T06:14:09.127Z,83.03
2019-01-23T06:16:38.835Z,87.10
2019-01-23T06:19:08.523Z,87.00
2019-01-23T06:21:38.262Z,85.47
2019-01-23T06:24:07.944Z,86.57
2019-01-23T06:26:37.717Z,87.93
2019-01-23T06:29:07.401Z,85.43
2019-01-23T06:31:37.392Z,86.53
2019-01-23T06:34:07.309Z,86.03
2019-01-23T06:36:37.971Z,85.43
2019-01-23T06:39:08.671Z,84.30
2019-01-23T06:41:38.518Z,85.57
2019-01-23T06:44:08.212Z,84.07
2019-01-23T06:46:37.987Z,82.10
2019-01-23T06:49:07.677Z,81.97
2019-01-23T06:51:37.446Z,83.13
2019-01-23T06:54:07.151Z,83.97
2019-01-23T06:56:36.862Z,83.10
2019-01-23T06:59:06.624Z,83.10
2019-01-23T07:01:36.354Z,84.23
2019-01-23T07:04:06.108Z,82.10
2019-01-23T07:06:35.818Z,82.77
2019-01-23T07:09:08.666Z,87.50
2019-01-23T07:11:38.425Z,81.13
2019-01-23T07:14:08.120Z,78.83
2019-01-23T07:16:37.875Z,80.53
2019-01-23T07:19:07.650Z,80.73
2019-01-23T07:21:37.351Z,79.53
2019-01-23T07:24:07.115Z,78.57
2019-01-23T07:26:36.856Z,81.37
2019-01-23T07:29:06.703Z,80.73
2019-01-23T07:31:36.482Z,79.50
2019-01-23T07:34:06.255Z,80.40
2019-01-23T07:36:35.947Z,78.80
2019-01-23T07:39:09.366Z,80.43
2019-01-23T07:41:39.056Z,78.30
2019-01-23T07:44:08.743Z,82.47
2019-01-23T07:46:38.566Z,79.73
2019-01-23T07:49:08.325Z,76.53
2019-01-23T07:51:38.119Z,77.90
2019-01-23T07:54:07.813Z,79.63
2019-01-23T07:56:37.506Z,81.90
2019-01-23T07:59:07.296Z,80.73
2019-01-23T08:01:37.069Z,79.93
2019-01-23T08:04:06.751Z,79.20
2019-01-23T08:06:36.507Z,81.77
2019-01-23T08:09:08.485Z,77.33
2019-01-23T08:11:38.399Z,80.87
2019-01-23T08:14:08.344Z,78.00
2019-01-23T08:16:38.026Z,80.97
2019-01-23T08:19:07.821Z,81.00
2019-01-23T08:21:37.511Z,81.83
2019-01-23T08:24:07.319Z,81.67
2019-01-23T08:26:37.070Z,82.07
2019-01-23T08:29:06.818Z,93.60
2019-01-23T08:31:36.479Z,81.13
2019-01-23T08:34:06.292Z,83.10
2019-01-23T08:36:36.015Z,83.17
2019-01-23T08:39:08.387Z,82.50
2019-01-23T08:41:38.048Z,82.50
2019-01-23T08:44:07.717Z,82.30
2019-01-23T08:46:37.450Z,83.43
2019-01-23T08:49:07.182Z,84.97
2019-01-23T08:51:36.850Z,91.73
2019-01-23T08:54:06.503Z,88.57
2019-01-23T08:56:36.239Z,86.23
2019-01-23T08:59:05.987Z,87.23
2019-01-23T09:01:36.613Z,95.83
2019-01-23T09:04:06.288Z,87.37
2019-01-23T09:06:36.105Z,84.20
2019-01-23T09:09:07.856Z,91.80
2019-01-23T09:11:37.598Z,88.43
2019-01-23T09:14:08.302Z,87.93
2019-01-23T09:16:38.030Z,83.10
2019-01-23T09:19:07.839Z,93.97
2019-01-23T09:21:37.515Z,89.43
2019-01-23T09:24:07.188Z,90.40
2019-01-23T09:26:36.871Z,85.47
2019-01-23T09:29:06.531Z,89.57
2019-01-23T09:31:57.111Z,85.53
2019-01-23T09:35:08.398Z,85.63
2019-01-23T09:37:54.034Z,88.63
2019-01-23T09:40:57.999Z,87.93
2019-01-23T09:43:50.378Z,85.07
2019-01-23T09:46:49.703Z,85.47
2019-01-23T09:49:57.883Z,87.10
2019-01-23T09:53:26.582Z,86.70
2019-01-23T09:55:57.388Z,90.20
2019-01-23T09:58:27.076Z,89.57
2019-01-23T10:00:59.905Z,91.03
2019-01-23T10:03:28.310Z,85.30
2019-01-23T10:05:59.599Z,87.37
2019-01-23T10:08:29.343Z,88.13
2019-01-23T10:10:59.019Z,89.53
2019-01-23T10:13:28.740Z,88.37
2019-01-23T10:16:08.228Z,91.30
2019-01-23T10:18:37.891Z,86.40
2019-01-23T10:21:07.554Z,90.10
2019-01-23T10:23:37.173Z,95.47
2019-01-23T10:26:07.787Z,87.90
2019-01-23T10:28:37.468Z,87.13
2019-01-23T10:31:07.150Z,87.63
2019-01-23T10:33:36.762Z,88.63
2019-01-23T10:36:06.806Z,87.97
2019-01-23T10:38:36.435Z,86.50
2019-01-23T10:41:06.143Z,80.47
2019-01-23T10:43:35.763Z,80.83
2019-01-23T10:46:05.919Z,80.47
2019-01-23T10:48:38.108Z,81.93
2019-01-23T10:51:06.969Z,79.57
2019-01-23T10:53:36.593Z,80.77
2019-01-23T10:56:06.398Z,82.37
2019-01-23T10:58:37.392Z,79.27
2019-01-23T11:01:13.225Z,86.20
2019-01-23T11:03:38.401Z,82.10
2019-01-23T11:06:08.091Z,85.40
2019-01-23T11:08:37.777Z,80.77
2019-01-23T11:11:07.379Z,79.87
2019-01-23T11:13:38.373Z,87.37
2019-01-23T11:16:08.073Z,82.00
2019-01-23T11:18:37.716Z,79.03
2019-01-23T11:21:07.335Z,83.00
2019-01-23T11:23:37.435Z,79.97
2019-01-23T11:26:07.214Z,79.33
2019-01-23T11:28:36.835Z,80.50
2019-01-23T11:31:06.522Z,80.93
2019-01-23T11:33:36.288Z,79.53
2019-01-23T11:36:06.086Z,81.73
2019-01-23T11:38:35.790Z,79.13
2019-01-23T11:41:07.165Z,81.47
2019-01-23T11:43:36.788Z,81.77
2019-01-23T11:46:06.543Z,81.87
2019-01-23T11:48:36.456Z,83.10
2019-01-23T11:51:07.851Z,82.10
2019-01-23T11:53:38.369Z,80.80
2019-01-23T11:56:08.867Z,80.90
2019-01-23T11:58:38.567Z,80.63
2019-01-23T12:01:08.715Z,80.37
2019-01-23T12:03:38.334Z,80.70
2019-01-23T12:06:08.082Z,78.60
2019-01-23T12:08:37.744Z,81.50
2019-01-23T12:11:08.979Z,82.77
2019-01-23T12:13:38.598Z,80.10
2019-01-23T12:16:08.326Z,80.20
2019-01-23T12:18:37.935Z,79.40
2019-01-23T12:21:07.651Z,81.37
2019-01-23T12:23:37.348Z,82.13
2019-01-23T12:26:06.967Z,82.10
2019-01-23T12:28:36.575Z,80.17
2019-01-23T12:31:06.226Z,81.93
2019-01-23T12:33:35.836Z,79.33
2019-01-23T12:36:05.483Z,79.43
2019-01-23T12:38:35.090Z,77.30
2019-01-23T12:41:04.952Z,78.07
2019-01-23T12:43:34.629Z,79.93
2019-01-23T12:46:04.489Z,77.53
2019-01-23T12:48:34.182Z,77.40
2019-01-23T12:51:03.866Z,78.23
2019-01-23T12:53:34.571Z,79.23
2019-01-23T12:56:04.256Z,80.10
2019-01-23T12:58:33.892Z,78.60
2019-01-23T13:01:03.759Z,80.47
2019-01-23T13:03:33.455Z,79.70
2019-01-23T13:06:03.127Z,77.77
2019-01-23T13:08:32.735Z,81.17
2019-01-23T13:11:02.353Z,81.60
2019-01-23T13:13:31.955Z,79.70
2019-01-23T13:16:02.442Z,78.87
2019-01-23T13:18:32.179Z,81.47
2019-01-23T13:21:01.810Z,79.63
2019-01-23T13:23:42.137Z,78.03
2019-01-23T13:26:12.617Z,79.20
2019-01-23T13:28:43.423Z,77.47
2019-01-23T13:31:14.887Z,80.17
2019-01-23T13:33:44.505Z,94.40
2019-01-23T13:36:14.179Z,91.77
2019-01-23T13:38:43.794Z,91.33
2019-01-23T13:41:13.494Z,93.90
2019-01-23T13:43:43.129Z,94.33
2019-01-23T13:46:12.816Z,93.67
2019-01-23T13:48:42.591Z,92.73
2019-01-23T13:51:12.271Z,90.60
2019-01-23T13:53:42.143Z,92.50
2019-01-23T13:56:11.824Z,99.77
2019-01-23T13:58:41.941Z,90.23
2019-01-23T14:01:11.815Z,90.13
2019-01-23T14:03:41.566Z,93.27
2019-01-23T14:06:11.179Z,93.77
2019-01-23T14:08:40.799Z,94.10
2019-01-23T14:11:10.475Z,95.40
2019-01-23T14:13:40.095Z,92.83
2019-01-23T14:16:09.960Z,95.97
2019-01-23T14:18:39.704Z,94.90
2019-01-23T14:21:09.358Z,92.77
2019-01-23T14:23:38.987Z,92.23
2019-01-23T14:26:08.672Z,90.37
2019-01-23T14:28:38.361Z,91.60
2019-01-23T14:31:07.980Z,93.27
2019-01-23T14:33:37.597Z,87.30
2019-01-23T14:36:07.210Z,92.53
2019-01-23T14:38:36.842Z,89.70
2019-01-23T14:41:06.518Z,94.70
2019-01-23T14:43:36.192Z,88.13
2019-01-23T14:46:05.850Z,90.47
2019-01-23T14:48:35.535Z,92.17
2019-01-23T14:51:05.301Z,87.77
2019-01-23T14:53:34.955Z,89.43
2019-01-23T14:56:04.733Z,87.83
2019-01-23T14:58:34.407Z,90.20
2019-01-23T15:01:04.039Z,88.03
2019-01-23T15:03:33.727Z,87.10
2019-01-23T15:06:04.343Z,87.50
2019-01-23T15:08:36.572Z,89.10
2019-01-23T15:11:06.186Z,87.47
2019-01-23T15:13:35.822Z,89.80
2019-01-23T15:16:06.401Z,88.60
2019-01-23T15:18:36.014Z,88.23
2019-01-23T15:21:05.770Z,88.87
2019-01-23T15:23:35.481Z,94.47
2019-01-23T15:26:05.176Z,88.37
2019-01-23T15:28:34.805Z,88.33
2019-01-23T15:31:04.578Z,92.60
2019-01-23T15:33:34.199Z,91.53
2019-01-23T15:36:03.887Z,90.63
2019-01-23T15:38:33.553Z,101.80
2019-01-23T15:41:03.310Z,87.27
2019-01-23T15:43:33.020Z,96.03
2019-01-23T15:46:02.707Z,88.43
2019-01-23T15:48:32.325Z,88.57
2019-01-23T15:51:08.915Z,90.03
2019-01-23T15:53:38.763Z,92.20
2019-01-23T15:56:08.387Z,87.07
2019-01-23T15:58:38.112Z,86.27
2019-01-23T16:01:07.821Z,88.60
2019-01-23T16:03:37.424Z,89.20
2019-01-23T16:06:07.210Z,87.63
2019-01-23T16:08:37.752Z,87.50
2019-01-23T16:11:07.371Z,88.47
2019-01-23T16:13:42.256Z,88.63
2019-01-23T16:16:08.318Z,89.47
2019-01-23T16:18:50.541Z,89.70
2019-01-23T16:21:32.912Z,88.83
2019-01-23T16:24:05.295Z,86.60
2019-01-23T16:26:40.133Z,88.63
2019-01-23T16:29:09.827Z,88.50
2019-01-23T16:31:39.459Z,88.37
2019-01-23T16:34:09.263Z,94.23
2019-01-23T16:36:39.859Z,90.20
2019-01-23T16:39:09.556Z,86.70
2019-01-23T16:41:39.194Z,87.67
2019-01-23T16:44:08.932Z,87.97
2019-01-23T16:46:39.375Z,87.63
2019-01-23T16:49:09.045Z,88.83
2019-01-23T16:51:38.654Z,87.77
2019-01-23T16:54:08.349Z,89.07
2019-01-23T16:56:38.214Z,87.93
2019-01-23T16:59:07.839Z,91.37
2019-01-23T17:01:37.468Z,88.83
2019-01-23T17:04:07.170Z,88.57
2019-01-23T17:06:36.934Z,87.77
2019-01-23T17:09:08.775Z,91.80
2019-01-23T17:11:39.199Z,87.40
2019-01-23T17:14:09.434Z,90.67
2019-01-23T17:16:39.852Z,89.30
2019-01-23T17:19:09.772Z,88.67
2019-01-23T17:21:39.840Z,89.10
2019-01-23T17:24:10.223Z,89.37
2019-01-23T17:26:44.039Z,88.33
2019-01-23T17:29:15.385Z,90.33
2019-01-23T17:31:45.779Z,89.17
2019-01-23T17:34:17.303Z,90.10
2019-01-23T17:36:49.484Z,89.53
2019-01-23T17:39:20.910Z,92.37
2019-01-23T17:41:50.535Z,90.07
2019-01-23T17:44:20.149Z,92.37
2019-01-23T17:46:49.945Z,89.20
2019-01-23T17:49:19.602Z,88.67
2019-01-23T17:51:49.241Z,90.57
2019-01-23T17:54:19.221Z,90.63
2019-01-23T17:56:49.297Z,90.07
2019-01-23T17:59:19.264Z,93.73
2019-01-23T18:01:48.965Z,91.23
2019-01-23T18:04:18.556Z,90.20
2019-01-23T18:06:48.174Z,91.33
2019-01-23T18:09:19.411Z,90.47
2019-01-23T18:11:49.119Z,87.70
2019-01-23T18:14:18.732Z,89.77
2019-01-23T18:16:48.359Z,93.80
2019-01-23T18:19:18.041Z,88.07
2019-01-23T18:21:47.736Z,92.97
2019-01-23T18:24:17.373Z,90.53
2019-01-23T18:26:47.002Z,91.83
2019-01-23T18:29:16.604Z,90.43
2019-01-23T18:31:50.383Z,90.07
2019-01-23T18:34:32.874Z,90.57
2019-01-23T18:37:24.775Z,90.43
2019-01-23T18:40:24.499Z,90.83
2019-01-23T18:43:25.961Z,93.93
2019-01-23T18:46:39.388Z,88.07
2019-01-23T18:49:30.635Z,92.90
2019-01-23T18:52:11.418Z,91.70
2019-01-23T18:54:42.101Z,88.60
2019-01-23T18:57:15.087Z,94.10
2019-01-23T18:59:44.854Z,90.70
2019-01-23T19:02:14.474Z,91.97
2019-01-23T19:04:44.155Z,92.27
2019-01-23T19:07:13.854Z,91.73
2019-01-23T19:09:43.572Z,88.90
2019-01-23T19:12:13.353Z,90.57
2019-01-23T19:14:43.156Z,90.57
2019-01-23T19:17:12.959Z,90.07
2019-01-23T19:19:46.355Z,94.47
2019-01-23T19:22:17.733Z,88.57
2019-01-23T19:24:47.360Z,89.20
2019-01-23T19:27:16.975Z,93.40
2019-01-23T19:29:46.704Z,90.37
2019-01-23T19:32:16.379Z,93.17
2019-01-23T19:34:46.096Z,89.77
2019-01-23T19:37:15.795Z,87.90
2019-01-23T19:39:45.433Z,92.20
2019-01-23T19:42:15.135Z,90.87
2019-01-23T19:44:44.790Z,88.37
2019-01-23T19:47:14.436Z,91.17
2019-01-23T19:49:44.281Z,89.93
2019-01-23T19:52:13.955Z,90.27
2019-01-23T19:54:43.585Z,91.60
2019-01-23T19:57:14.282Z,90.20
2019-01-23T19:59:44.000Z,91.73
2019-01-23T20:02:13.705Z,93.37
2019-01-23T20:04:43.418Z,94.33
2019-01-23T20:07:13.050Z,89.57
2019-01-23T20:09:42.839Z,90.70
2019-01-23T20:12:15.745Z,91.70
2019-01-23T20:14:43.891Z,92.63
2019-01-23T20:17:13.511Z,93.13
2019-01-23T20:19:43.143Z,91.30
2019-01-23T20:22:12.792Z,91.63
2019-01-23T20:24:42.438Z,90.97
2019-01-23T20:27:12.070Z,91.23
2019-01-23T20:29:41.687Z,91.20
2019-01-23T20:32:11.309Z,89.93
2019-01-23T20:34:40.924Z,89.93
2019-01-23T20:37:10.528Z,89.97
2019-01-23T20:39:40.149Z,90.50
2019-01-23T20:42:09.793Z,92.73
2019-01-23T20:44:39.447Z,89.77
2019-01-23T20:47:09.130Z,89.40
2019-01-23T20:49:38.843Z,90.37
2019-01-23T20:52:08.534Z,91.00
2019-01-23T20:54:38.143Z,90.13
2019-01-23T20:57:07.758Z,90.90
2019-01-23T20:59:37.472Z,90.37
2019-01-23T21:02:07.248Z,102.33
2019-01-23T21:04:36.874Z,91.03
2019-01-23T21:07:06.563Z,90.40
2019-01-23T21:09:36.264Z,90.40
2019-01-23T21:12:05.883Z,91.27
2019-01-23T21:14:35.568Z,92.40
2019-01-23T21:17:05.259Z,91.33
2019-01-23T21:19:34.882Z,89.97
2019-01-23T21:22:04.678Z,91.97
2019-01-23T21:24:34.342Z,90.87
2019-01-23T21:27:04.036Z,91.73
2019-01-23T21:29:33.663Z,92.47
2019-01-23T21:32:03.363Z,90.50
2019-01-23T21:34:33.002Z,90.63
2019-01-23T21:37:02.613Z,90.47
2019-01-23T21:39:32.313Z,93.33
2019-01-23T21:42:02.005Z,90.03
2019-01-23T21:44:32.448Z,89.93
2019-01-23T21:47:02.072Z,91.07
2019-01-23T21:49:31.693Z,91.77
2019-01-23T21:52:01.331Z,90.70
2019-01-23T21:54:30.973Z,89.37
2019-01-23T21:57:00.643Z,89.20
2019-01-23T21:59:30.269Z,89.63
2019-01-23T22:02:00.048Z,91.30
2019-01-23T22:04:29.742Z,88.70
2019-01-23T22:06:59.352Z,89.00
2019-01-23T22:09:28.963Z,90.53
2019-01-23T22:11:58.570Z,88.00
2019-01-23T22:14:29.255Z,91.67
2019-01-23T22:16:58.881Z,89.13
2019-01-23T22:19:28.555Z,91.03
2019-01-23T22:21:58.242Z,91.07
2019-01-23T22:24:27.872Z,94.63
2019-01-23T22:26:57.583Z,96.53
2019-01-23T22:29:27.193Z,92.47
2019-01-23T22:31:56.809Z,93.13
2019-01-23T22:34:26.419Z,90.23
2019-01-23T22:36:57.058Z,92.47
2019-01-23T22:39:26.769Z,89.67
2019-01-23T22:41:56.397Z,91.13
2019-01-23T22:44:26.002Z,93.30
2019-01-23T22:46:55.620Z,98.83
2019-01-23T22:49:25.228Z,93.07
2019-01-23T22:51:54.853Z,94.20
2019-01-23T22:54:24.493Z,93.03
2019-01-23T22:56:54.129Z,92.80
2019-01-23T22:59:23.737Z,95.83
2019-01-23T23:01:53.383Z,92.70
2019-01-23T23:04:23.104Z,90.13
2019-01-23T23:06:52.730Z,92.73
2019-01-23T23:09:22.341Z,92.00
2019-01-23T23:11:51.971Z,91.63
2019-01-23T23:14:21.661Z,92.30
2019-01-23T23:16:51.305Z,94.87
2019-01-23T23:19:20.959Z,91.07
2019-01-23T23:21:50.744Z,92.10
2019-01-23T23:24:20.355Z,95.20
2019-01-23T23:26:49.983Z,92.43
2019-01-23T23:29:20.571Z,95.10
2019-01-23T23:31:50.184Z,94.50
2019-01-23T23:34:19.809Z,91.77
2019-01-23T23:36:49.411Z,93.53
2019-01-23T23:39:19.037Z,93.93
2019-01-23T23:41:48.796Z,92.33
2019-01-23T23:44:18.411Z,95.30
2019-01-23T23:46:48.025Z,92.93
2019-01-23T23:49:17.638Z,94.03
2019-01-23T23:51:47.239Z,92.17
2019-01-23T23:54:16.864Z,95.13
2019-01-23T23:56:46.477Z,96.67
2019-01-23T23:59:16.099Z,95.00
